Time;durP1;ratioP1;P1;durP2;ratioP2;P2;SDS_P1;SDS_P2;PMS_P1;PMS_P2;Temp;Humidity;BMP_temperature;BMP_pressure;BME280_temperature;BME280_humidity;BME280_pressure;Samples;Min_cycle;Max_cycle;Signal;HPM_P1;HPM_P2
2024/04/23 00:00:11;;;;;;;7.70;4.78;;;;;;;1.86;100.00;95983.84;1102504;26;19997;-72
2024/04/23 00:00:42;;;;;;;6.32;4.55;;;;;;;1.84;100.00;95981.44;1096180;27;19994;-71
2024/04/23 00:01:12;;;;;;;8.10;4.72;;;;;;;1.82;100.00;95985.25;1102950;26;20011;-72
2024/04/23 00:01:43;;;;;;;8.23;5.15;;;;;;;1.82;100.00;95985.25;1103561;26;19993;-72
2024/04/23 00:02:13;;;;;;;5.68;4.28;;;;;;;1.79;100.00;95985.66;1096283;26;20009;-71
2024/04/23 00:02:44;;;;;;;9.13;4.60;;;;;;;1.78;100.00;95994.41;1110412;26;19996;-71
2024/04/23 00:03:14;;;;;;;7.78;5.07;;;;;;;1.79;100.00;95988.25;1118046;26;20003;-71
2024/04/23 00:03:45;;;;;;;10.80;4.60;;;;;;;1.75;100.00;95997.41;1103292;26;20000;-72
2024/04/23 00:04:15;;;;;;;6.85;4.90;;;;;;;1.66;100.00;95983.88;1096285;26;20079;-71
2024/04/23 00:04:46;;;;;;;7.40;5.45;;;;;;;1.72;100.00;95996.00;1096248;27;19994;-72
2024/04/23 00:05:16;;;;;;;7.85;5.05;;;;;;;1.74;100.00;95993.22;1095955;27;19997;-72
2024/04/23 00:05:46;;;;;;;7.80;4.82;;;;;;;1.70;100.00;95994.63;1096302;26;20012;-72
2024/04/23 00:06:17;;;;;;;7.88;4.63;;;;;;;1.74;100.00;96006.16;1100959;26;20005;-72
2024/04/23 00:06:57;;;;;;;6.22;4.53;;;;;;;1.71;100.00;95991.03;1110565;26;20538;-70
2024/04/23 00:07:27;;;;;;;7.78;4.72;;;;;;;1.74;100.00;96003.56;1103402;26;20515;-72
2024/04/23 00:07:58;;;;;;;7.20;4.68;;;;;;;1.72;100.00;96002.97;1105302;26;20008;-72
2024/04/23 00:08:28;;;;;;;8.93;5.32;;;;;;;1.72;100.00;96008.16;1103175;26;19997;-71
2024/04/23 00:08:59;;;;;;;9.02;5.15;;;;;;;1.63;100.00;95995.41;1096306;26;20008;-72
2024/04/23 00:09:29;;;;;;;9.13;4.93;;;;;;;1.68;100.00;96000.00;1088671;27;20347;-72
2024/04/23 00:10:00;;;;;;;6.63;4.07;;;;;;;1.62;100.00;96004.16;1088625;26;19994;-72
2024/04/23 00:10:30;;;;;;;6.95;5.25;;;;;;;1.57;100.00;96003.94;1103299;26;19997;-72
2024/04/23 00:11:00;;;;;;;8.90;5.30;;;;;;;1.63;100.00;96004.97;1088959;27;19998;-72
2024/04/23 00:11:31;;;;;;;7.32;5.18;;;;;;;1.58;100.00;96009.94;1101127;26;20005;-71
2024/04/23 00:12:01;;;;;;;9.38;5.38;;;;;;;1.55;100.00;96007.75;1095735;27;20001;-72
2024/04/23 00:12:32;;;;;;;11.02;5.38;;;;;;;1.51;100.00;96007.34;1096719;26;19998;-72
2024/04/23 00:13:02;;;;;;;7.88;5.68;;;;;;;1.51;100.00;96011.72;1110183;26;20003;-72
2024/04/23 00:13:33;;;;;;;8.50;4.70;;;;;;;1.49;100.00;96011.94;1110435;26;20000;-72
2024/04/23 00:14:03;;;;;;;8.13;5.55;;;;;;;1.47;100.00;96015.69;1118070;26;20478;-71
2024/04/23 00:14:33;;;;;;;6.43;4.68;;;;;;;1.46;100.00;96014.91;1117701;26;20459;-72
2024/04/23 00:15:04;;;;;;;8.80;5.45;;;;;;;1.44;100.00;96018.66;1117861;26;20578;-72
2024/04/23 00:15:35;;;;;;;9.00;5.07;;;;;;;1.41;100.00;96023.25;1125310;26;20512;-72
2024/04/23 00:16:06;;;;;;;7.82;5.00;;;;;;;1.42;100.00;96024.84;1117685;26;20561;-72
2024/04/23 00:16:36;;;;;;;7.72;4.68;;;;;;;1.41;100.00;96015.50;1096480;26;20484;-71
2024/04/23 00:17:07;;;;;;;7.57;4.90;;;;;;;1.40;100.00;96021.66;1096338;26;19997;-72
2024/04/23 00:17:37;;;;;;;8.45;5.60;;;;;;;1.44;100.00;96027.22;1103218;26;20068;-72
2024/04/23 00:18:08;;;;;;;9.85;5.32;;;;;;;1.38;100.00;96017.69;1103372;26;20008;-72
2024/04/23 00:18:38;;;;;;;9.93;5.35;;;;;;;1.41;100.00;96023.25;1096020;26;20092;-72
2024/04/23 00:19:08;;;;;;;10.07;5.63;;;;;;;1.45;100.00;96028.84;1088932;27;20421;-72
2024/04/23 00:19:39;;;;;;;8.65;5.35;;;;;;;1.44;100.00;96024.63;1090652;26;19998;-71
2024/04/23 00:20:09;;;;;;;6.72;5.20;;;;;;;1.45;100.00;96025.47;1095504;26;20386;-71
2024/04/23 00:20:40;;;;;;;8.63;5.18;;;;;;;1.34;100.00;96011.31;1096654;26;20519;-72
2024/04/23 00:21:10;;;;;;;7.95;5.18;;;;;;;1.42;100.00;96021.47;1089142;27;20374;-71
2024/04/23 00:21:41;;;;;;;9.23;5.35;;;;;;;1.40;100.00;96020.84;1088799;27;20078;-71
2024/04/23 00:22:11;;;;;;;7.43;4.85;;;;;;;1.42;100.00;96021.47;1089397;27;20014;-71
2024/04/23 00:22:41;;;;;;;14.60;5.20;;;;;;;1.44;100.00;96027.22;1096186;26;20002;-71
2024/04/23 00:23:12;;;;;;;9.07;5.75;;;;;;;1.38;100.00;96020.28;1103151;26;20449;-71
2024/04/23 00:23:43;;;;;;;6.90;5.10;;;;;;;1.41;100.00;96022.47;1103622;26;20831;-71
2024/04/23 00:24:13;;;;;;;9.70;5.28;;;;;;;1.44;100.00;96027.22;1096236;26;20012;-72
2024/04/23 00:24:44;;;;;;;8.95;5.47;;;;;;;1.47;100.00;96026.81;1096042;26;20010;-71
2024/04/23 00:25:14;;;;;;;10.35;5.20;;;;;;;1.48;100.00;96036.19;1103194;26;19997;-71
2024/04/23 00:25:44;;;;;;;8.20;5.60;;;;;;;1.48;100.00;96038.00;1110554;26;20000;-71
2024/04/23 00:26:15;;;;;;;8.73;5.47;;;;;;;1.49;100.00;96039.56;1103453;26;20419;-71
2024/04/23 00:26:58;;;;;;;9.13;6.18;;;;;;;1.43;100.00;96035.97;1103027;26;20016;-71
2024/04/23 00:27:29;;;;;;;7.05;4.82;;;;;;;1.45;100.00;96039.19;1089238;27;20009;-71
2024/04/23 00:27:59;;;;;;;7.90;5.60;;;;;;;1.43;100.00;96041.16;1094989;26;20607;-71
2024/04/23 00:28:29;;;;;;;7.68;5.63;;;;;;;1.44;100.00;96042.72;1102287;26;20005;-71
2024/04/23 00:29:00;;;;;;;7.85;5.35;;;;;;;1.46;100.00;96045.94;1103505;26;20004;-71
2024/04/23 00:29:30;;;;;;;9.73;5.30;;;;;;;1.41;100.00;96032.81;1110326;26;20046;-71
2024/04/23 00:30:01;;;;;;;11.10;5.90;;;;;;;1.48;100.00;96045.75;1095073;26;20529;-71
2024/04/23 00:30:31;;;;;;;9.25;5.68;;;;;;;1.51;100.00;96040.16;1103434;26;20452;-73
2024/04/23 00:31:02;;;;;;;9.13;5.63;;;;;;;1.50;100.00;96041.94;1096091;27;20001;-71
2024/04/23 00:31:32;;;;;;;10.82;5.47;;;;;;;1.50;100.00;96043.75;1095722;26;19993;-71
2024/04/23 00:32:03;;;;;;;7.88;5.43;;;;;;;1.49;100.00;96045.53;1095202;27;20074;-70
2024/04/23 00:32:33;;;;;;;7.15;5.40;;;;;;;1.42;100.00;96034.41;1095302;26;20092;-70
2024/04/23 00:33:07;;;;;;;6.68;4.75;;;;;;;1.48;100.00;96041.38;1095726;26;20480;-71
2024/04/23 00:33:37;;;;;;;9.00;5.03;;;;;;;1.47;100.00;96042.34;1096644;26;20495;-71
2024/04/23 00:34:08;;;;;;;8.75;5.50;;;;;;;1.49;100.00;96042.94;1103904;26;20263;-71
2024/04/23 00:34:38;;;;;;;7.47;4.97;;;;;;;1.50;100.00;96044.53;1104307;26;19997;-71
2024/04/23 00:35:09;;;;;;;8.50;5.75;;;;;;;1.53;100.00;96046.72;1110197;26;20514;-70
2024/04/23 00:35:39;;;;;;;9.63;5.45;;;;;;;1.49;100.00;96037.78;1117864;26;19996;-71
2024/04/23 00:36:10;;;;;;;7.43;4.97;;;;;;;1.49;100.00;96040.38;1110327;26;20008;-71
2024/04/23 00:36:56;;;;;;;8.88;5.68;;;;;;;1.42;100.00;96030.03;1117305;26;20069;-71
2024/04/23 00:37:27;;;;;;;9.13;5.13;;;;;;;1.47;100.00;96036.38;1096052;27;20002;-71
2024/04/23 00:37:57;;;;;;;8.95;5.63;;;;;;;1.46;100.00;96040.75;1088832;27;20218;-71
2024/04/23 00:38:28;;;;;;;9.52;5.47;;;;;;;1.47;100.00;96039.75;1088753;27;20527;-71
2024/04/23 00:38:58;;;;;;;7.65;4.90;;;;;;;1.46;100.00;96035.59;1089366;26;20010;-71
2024/04/23 00:39:29;;;;;;;7.82;4.75;;;;;;;1.53;100.00;96041.56;1096103;26;20017;-71
2024/04/23 00:39:59;;;;;;;6.90;5.18;;;;;;;1.49;100.00;96032.59;1102212;26;19997;-70
2024/04/23 00:40:30;;;;;;;10.15;5.55;;;;;;;1.55;100.00;96044.75;1095866;26;19998;-71
2024/04/23 00:41:00;;;;;;;9.88;5.10;;;;;;;1.56;100.00;96042.97;1096244;26;20496;-71
2024/04/23 00:41:31;;;;;;;8.82;5.13;;;;;;;1.52;100.00;96034.81;1089163;27;20002;-71
2024/04/23 00:42:01;;;;;;;7.68;4.80;;;;;;;1.52;100.00;96039.97;1096048;26;20358;-71
2024/04/23 00:42:31;;;;;;;6.75;4.95;;;;;;;1.49;100.00;96037.78;1096231;27;20416;-72
2024/04/23 00:43:02;;;;;;;7.80;5.50;;;;;;;1.57;100.00;96050.50;1096182;27;19998;-72
2024/04/23 00:43:32;;;;;;;11.18;5.63;;;;;;;1.58;100.00;96044.34;1089003;27;20342;-71
2024/04/23 00:44:03;;;;;;;8.25;5.35;;;;;;;1.58;100.00;96046.16;1088406;26;19994;-71
2024/04/23 00:44:33;;;;;;;7.45;5.53;;;;;;;1.57;100.00;96047.91;1088792;27;19998;-71
2024/04/23 00:45:04;;;;;;;8.07;5.28;;;;;;;1.57;100.00;96040.16;1089062;26;20534;-71
2024/04/23 00:45:38;;;;;;;7.97;5.40;;;;;;;1.58;100.00;96038.41;1103372;26;19997;-71
2024/04/23 00:46:09;;;;;;;7.07;4.93;;;;;;;1.61;100.00;96043.97;1096083;27;20464;-71
2024/04/23 00:46:40;;;;;;;6.82;5.28;;;;;;;1.65;100.00;96039.19;1089001;27;20804;-72
2024/04/23 00:47:10;;;;;;;8.27;5.30;;;;;;;1.67;100.00;96042.34;1096768;26;20291;-72
2024/04/23 00:47:41;;;;;;;7.05;5.03;;;;;;;1.65;100.00;96032.22;1103096;26;20012;-71
2024/04/23 00:48:12;;;;;;;11.90;5.60;;;;;;;1.53;100.00;96018.28;1103395;26;20032;-72
2024/04/23 00:48:43;;;;;;;7.50;4.82;;;;;;;1.68;100.00;96037.97;1095821;26;19998;-71
2024/04/23 00:49:13;;;;;;;6.78;5.05;;;;;;;1.64;100.00;96028.06;1096021;27;20236;-71
2024/04/23 00:49:44;;;;;;;9.88;5.40;;;;;;;1.71;100.00;96038.41;1096243;27;20006;-71
2024/04/23 00:50:15;;;;;;;8.07;5.28;;;;;;;1.70;100.00;96041.16;1102064;26;20463;-71
2024/04/23 00:50:46;;;;;;;7.95;5.00;;;;;;;1.73;100.00;96041.56;1103176;26;20084;-71
2024/04/23 00:51:16;;;;;;;7.28;5.30;;;;;;;1.71;100.00;96035.00;1095905;27;20224;-71
2024/04/23 00:51:50;;;;;;;8.35;5.47;;;;;;;1.78;100.00;96036.59;1089023;27;20002;-72
2024/04/23 00:52:20;;;;;;;9.43;5.57;;;;;;;1.76;100.00;96038.59;1088876;27;19999;-71
2024/04/23 00:52:51;;;;;;;11.27;5.20;;;;;;;1.82;100.00;96040.38;1088861;27;20226;-72
2024/04/23 00:53:21;;;;;;;7.20;5.28;;;;;;;1.79;100.00;96040.78;1096193;27;20022;-71
2024/04/23 00:53:52;;;;;;;6.75;5.00;;;;;;;1.76;100.00;96030.03;1095767;26;19994;-71
2024/04/23 00:54:25;;;;;;;6.55;5.00;;;;;;;1.73;100.00;96030.44;1088833;27;20002;-71
2024/04/23 00:54:56;;;;;;;7.63;5.30;;;;;;;1.75;100.00;96028.44;1082117;27;19996;-71
2024/04/23 00:55:26;;;;;;;8.52;5.35;;;;;;;1.75;100.00;96024.06;1102525;26;20268;-71
2024/04/23 00:55:57;;;;;;;7.55;5.20;;;;;;;1.79;100.00;96032.22;1103115;26;20001;-71
2024/04/23 00:56:27;;;;;;;7.28;5.05;;;;;;;1.82;100.00;96034.41;1110347;26;20074;-71
2024/04/23 00:56:58;;;;;;;7.05;4.95;;;;;;;1.84;100.00;96032.41;1103081;26;20009;-71
2024/04/23 00:57:28;;;;;;;5.15;4.50;;;;;;;1.83;100.00;96025.66;1089696;27;20470;-71
2024/04/23 00:57:58;;;;;;;6.72;5.07;;;;;;;1.83;100.00;96036.78;1090494;27;20009;-71
2024/04/23 00:58:29;;;;;;;7.03;4.80;;;;;;;1.84;100.00;96027.22;1083420;27;19999;-72
2024/04/23 00:58:59;;;;;;;8.82;4.97;;;;;;;1.83;100.00;96020.47;1083489;27;20002;-72
2024/04/23 00:59:30;;;;;;;7.05;4.63;;;;;;;1.85;100.00;96027.03;1097084;26;20005;-71
2024/04/23 01:00:01;;;;;;;6.05;4.47;;;;;;;1.83;100.00;96017.88;1103764;26;20004;-71
2024/04/23 01:00:31;;;;;;;8.23;4.97;;;;;;;1.85;100.00;96024.47;1097450;26;20395;-71
2024/04/23 01:01:04;;;;;;;6.82;5.05;;;;;;;1.86;100.00;96023.44;1100149;26;20033;-71
2024/04/23 01:01:35;;;;;;;8.18;4.90;;;;;;;1.89;100.00;96028.22;1104475;26;19996;-72
2024/04/23 01:02:06;;;;;;;8.23;5.45;;;;;;;1.91;100.00;96028.00;1104635;26;20330;-71
2024/04/23 01:02:36;;;;;;;7.88;5.07;;;;;;;1.92;100.00;96024.44;1098381;26;20336;-71
2024/04/23 01:03:07;;;;;;;10.68;5.70;;;;;;;1.85;100.00;96023.66;1103940;26;20077;-72
2024/04/23 01:03:37;;;;;;;7.25;4.82;;;;;;;1.81;100.00;96018.09;1104707;26;20012;-71
2024/04/23 01:04:08;;;;;;;7.78;5.50;;;;;;;1.81;100.00;96017.28;1112008;26;20000;-71
2024/04/23 01:04:38;;;;;;;11.05;4.93;;;;;;;1.78;100.00;96013.31;1114418;26;20412;-71
2024/04/23 01:05:09;;;;;;;7.40;4.90;;;;;;;1.75;100.00;96013.72;1119104;26;20707;-71
2024/04/23 01:05:39;;;;;;;6.85;4.97;;;;;;;1.76;100.00;96006.75;1119351;26;19996;-71
2024/04/23 01:06:09;;;;;;;7.05;4.57;;;;;;;1.75;100.00;96016.31;1118996;26;20006;-71
2024/04/23 01:06:40;;;;;;;6.80;4.40;;;;;;;1.70;100.00;96003.16;1111691;26;20016;-71
2024/04/23 01:07:10;;;;;;;9.43;5.45;;;;;;;1.72;100.00;96003.78;1106083;26;20032;-71
2024/04/23 01:07:41;;;;;;;8.32;5.07;;;;;;;1.74;100.00;96006.16;1097261;27;19999;-71
2024/04/23 01:08:11;;;;;;;6.20;4.40;;;;;;;1.78;100.00;96009.94;1097634;26;19997;-71
2024/04/23 01:08:42;;;;;;;7.68;4.93;;;;;;;1.76;100.00;96006.75;1104882;26;20488;-71
2024/04/23 01:09:12;;;;;;;7.38;5.18;;;;;;;1.71;100.00;96001.38;1106585;26;20369;-71
2024/04/23 01:09:43;;;;;;;7.38;4.80;;;;;;;1.75;100.00;96007.75;1111593;26;20004;-71
2024/04/23 01:10:13;;;;;;;6.60;4.45;;;;;;;1.74;100.00;96006.16;1103784;26;20013;-71
2024/04/23 01:10:44;;;;;;;8.48;5.32;;;;;;;1.72;100.00;95993.41;1097342;27;20017;-71
2024/04/23 01:11:14;;;;;;;7.00;4.43;;;;;;;1.74;100.00;96000.97;1097435;27;20001;-71
2024/04/23 01:11:45;;;;;;;7.18;4.57;;;;;;;1.72;100.00;96000.41;1097638;26;20485;-71
2024/04/23 01:12:15;;;;;;;6.25;4.60;;;;;;;1.65;100.00;95988.25;1104491;26;20059;-71
2024/04/23 01:12:45;;;;;;;5.88;4.40;;;;;;;1.71;100.00;95991.03;1097906;26;20072;-71
2024/04/23 01:13:16;;;;;;;7.40;4.88;;;;;;;1.70;100.00;95990.22;1111720;26;20716;-71
2024/04/23 01:13:46;;;;;;;8.80;5.07;;;;;;;1.61;100.00;95976.72;1111680;26;20461;-71
2024/04/23 01:14:17;;;;;;;8.93;4.47;;;;;;;1.67;100.00;95987.25;1112159;26;20255;-70
2024/04/23 01:14:47;;;;;;;6.88;4.88;;;;;;;1.62;100.00;95978.31;1097410;27;20136;-71
2024/04/23 01:15:18;;;;;;;7.80;5.00;;;;;;;1.62;100.00;95978.31;1090654;27;19998;-71
2024/04/23 01:15:49;;;;;;;7.03;4.70;;;;;;;1.62;100.00;95969.75;1097494;27;20088;-70
2024/04/23 01:16:20;;;;;;;7.35;5.07;;;;;;;1.69;100.00;95972.34;1097147;26;20002;-70
2024/04/23 01:16:51;;;;;;;6.65;4.90;;;;;;;1.68;100.00;95973.31;1090568;27;19998;-71
2024/04/23 01:17:21;;;;;;;8.05;5.00;;;;;;;1.65;100.00;95961.59;1090402;27;20229;-71
2024/04/23 01:17:53;;;;;;;6.57;4.57;;;;;;;1.72;100.00;95970.16;1090262;27;20045;-71
2024/04/23 01:18:24;;;;;;;7.63;5.05;;;;;;;1.73;100.00;95968.34;1105055;26;20051;-71
2024/04/23 01:18:55;;;;;;;10.23;5.07;;;;;;;1.69;100.00;95956.81;1093716;27;20328;-72
2024/04/23 01:19:32;;;;;;;10.15;4.90;;;;;;;1.75;100.00;95961.19;1100743;27;20033;-71
2024/04/23 01:20:04;;;;;;;8.07;5.30;;;;;;;1.76;100.00;95955.81;1092295;27;19998;-71
2024/04/23 01:20:34;;;;;;;7.70;5.03;;;;;;;1.76;100.00;95944.66;1083620;27;20278;-71
2024/04/23 01:21:04;;;;;;;10.13;4.63;;;;;;;1.79;100.00;95958.00;1083581;27;20762;-71
2024/04/23 01:21:42;;;;;;;7.20;4.72;;;;;;;1.78;100.00;95956.41;1088126;27;20002;-71
2024/04/23 01:22:17;;;;;;;8.00;4.68;;;;;;;1.77;100.00;95946.25;1097607;27;20005;-71
2024/04/23 01:22:51;;;;;;;7.43;4.28;;;;;;;1.76;100.00;95942.09;1104612;26;20231;-71
2024/04/23 01:23:31;;;;;;;5.90;4.55;;;;;;;1.79;100.00;95945.06;1104406;26;20233;-71
2024/04/23 01:24:03;;;;;;;6.30;3.85;;;;;;;1.79;100.00;95941.69;1083264;27;20266;-71
2024/04/23 01:24:58;;;;;;;7.95;4.22;;;;;;;1.80;100.00;95941.47;1097272;27;20964;-71
2024/04/23 01:25:28;;;;;;;8.50;4.80;;;;;;;1.74;100.00;95925.97;1104351;26;20223;-70
2024/04/23 01:26:08;;;;;;;6.70;4.35;;;;;;;1.79;100.00;95931.34;1104568;26;20223;-70
2024/04/23 01:26:38;;;;;;;7.10;4.50;;;;;;;1.80;100.00;95932.91;1094337;27;20065;-71
2024/04/23 01:27:09;;;;;;;6.43;4.40;;;;;;;1.72;100.00;95920.22;1090408;27;20241;-72
2024/04/23 01:27:39;;;;;;;9.00;4.18;;;;;;;1.75;100.00;95924.97;1097578;27;20002;-71
2024/04/23 01:28:11;;;;;;;6.38;4.00;;;;;;;1.74;100.00;95918.97;1090125;27;20030;-71
2024/04/23 01:28:41;;;;;;;5.97;4.40;;;;;;;1.77;100.00;95933.31;1090053;27;20545;-71
2024/04/23 01:29:12;;;;;;;7.32;4.63;;;;;;;1.72;100.00;95915.03;1090394;27;20225;-71
2024/04/23 01:29:43;;;;;;;6.97;4.70;;;;;;;1.76;100.00;95927.34;1104491;26;20032;-71
2024/04/23 01:30:13;;;;;;;7.05;4.45;;;;;;;1.75;100.00;95924.97;1096578;27;20107;-71
2024/04/23 01:30:44;;;;;;;7.72;4.82;;;;;;;1.77;100.00;95933.31;1097273;27;20332;-71
2024/04/23 01:31:14;;;;;;;9.43;4.82;;;;;;;1.75;100.00;95922.41;1090255;26;20054;-71
2024/04/23 01:31:45;;;;;;;7.07;4.93;;;;;;;1.71;100.00;95928.94;1097333;27;20029;-70
2024/04/23 01:32:15;;;;;;;6.63;4.55;;;;;;;1.69;100.00;95925.78;1097422;27;19997;-71
2024/04/23 01:32:46;;;;;;;7.15;4.78;;;;;;;1.58;100.00;95920.22;1097232;27;19998;-71
2024/04/23 01:33:17;;;;;;;10.15;4.78;;;;;;;1.62;100.00;95926.59;1095256;27;20005;-70
2024/04/23 01:33:47;;;;;;;9.52;5.07;;;;;;;1.60;100.00;95923.38;1097194;27;20244;-71
2024/04/23 01:34:17;;;;;;;8.70;4.55;;;;;;;1.60;100.00;95931.16;1083523;27;19995;-71
2024/04/23 01:34:48;;;;;;;7.63;4.25;;;;;;;1.56;100.00;95917.03;1090167;27;20009;-70
2024/04/23 01:35:19;;;;;;;7.38;4.75;;;;;;;1.55;100.00;95927.59;1090065;27;20017;-71
2024/04/23 01:35:50;;;;;;;7.47;5.00;;;;;;;1.55;100.00;95925.81;1083364;27;19999;-71
2024/04/23 01:36:21;;;;;;;7.97;4.38;;;;;;;1.45;100.00;95914.28;1090881;27;19998;-71
2024/04/23 01:36:51;;;;;;;6.65;4.80;;;;;;;1.45;100.00;95919.44;1096883;27;20780;-72
2024/04/23 01:37:23;;;;;;;7.30;4.55;;;;;;;1.48;100.00;95930.19;1097477;27;20464;-71
2024/04/23 01:37:54;;;;;;;10.63;5.20;;;;;;;1.49;100.00;95923.22;1083128;27;19999;-70
2024/04/23 01:38:24;;;;;;;7.18;4.45;;;;;;;1.44;100.00;95918.63;1092357;27;20326;-71
2024/04/23 01:38:55;;;;;;;7.55;4.72;;;;;;;1.48;100.00;95924.22;1097181;27;20232;-71
2024/04/23 01:39:26;;;;;;;7.95;5.00;;;;;;;1.44;100.00;95920.44;1090097;27;20361;-70
2024/04/23 01:39:56;;;;;;;8.13;5.00;;;;;;;1.47;100.00;95927.78;1083418;27;20002;-70
2024/04/23 01:40:27;;;;;;;7.82;5.10;;;;;;;1.47;100.00;95928.56;1096632;27;20021;-71
2024/04/23 01:40:57;;;;;;;9.02;5.05;;;;;;;1.41;100.00;95919.06;1104123;26;19997;-71
2024/04/23 01:41:27;;;;;;;6.43;4.40;;;;;;;1.45;100.00;95925.41;1097454;26;20009;-70
2024/04/23 01:41:58;;;;;;;9.13;5.13;;;;;;;1.45;100.00;95925.41;1104198;26;20012;-70
2024/04/23 01:42:28;;;;;;;7.32;4.90;;;;;;;1.45;100.00;95927.22;1090562;26;20089;-71
2024/04/23 01:42:59;;;;;;;6.68;4.82;;;;;;;1.46;100.00;95933.97;1104151;26;20464;-70
2024/04/23 01:43:30;;;;;;;9.15;5.00;;;;;;;1.45;100.00;95933.16;1097033;27;20409;-71
2024/04/23 01:44:00;;;;;;;9.07;5.20;;;;;;;1.43;100.00;95932.56;1095281;26;20001;-71
2024/04/23 01:44:31;;;;;;;8.57;4.80;;;;;;;1.46;100.00;95944.31;1104026;26;20236;-72
2024/04/23 01:45:01;;;;;;;7.90;4.88;;;;;;;1.45;100.00;95935.75;1097187;27;20002;-71
2024/04/23 01:45:32;;;;;;;7.72;5.00;;;;;;;1.44;100.00;95943.69;1097195;26;20020;-71
2024/04/23 01:46:03;;;;;;;8.57;4.68;;;;;;;1.40;100.00;95938.13;1090360;27;19998;-71
2024/04/23 01:46:33;;;;;;;8.50;5.45;;;;;;;1.46;100.00;95946.88;1097444;27;20491;-71
2024/04/23 01:47:04;;;;;;;9.55;5.60;;;;;;;1.46;100.00;95942.50;1096980;27;20232;-71
2024/04/23 01:47:34;;;;;;;7.82;5.00;;;;;;;1.47;100.00;95948.47;1097248;27;20056;-71
2024/04/23 01:48:06;;;;;;;8.88;5.38;;;;;;;1.47;100.00;95951.06;1097448;27;20673;-71
2024/04/23 01:48:37;;;;;;;11.55;5.25;;;;;;;1.40;100.00;95946.69;1092420;27;20010;-72
2024/04/23 01:49:07;;;;;;;7.60;5.03;;;;;;;1.36;100.00;95942.91;1091121;26;20214;-71
2024/04/23 01:49:37;;;;;;;8.55;5.35;;;;;;;1.44;100.00;95947.06;1097796;26;20013;-71
2024/04/23 01:50:08;;;;;;;8.85;5.70;;;;;;;1.43;100.00;95948.06;1096467;27;20013;-71
2024/04/23 01:50:38;;;;;;;8.23;4.97;;;;;;;1.37;100.00;95943.69;1097240;27;20092;-71
2024/04/23 01:51:09;;;;;;;10.00;5.30;;;;;;;1.42;100.00;95951.66;1097123;26;20021;-71
2024/04/23 01:51:39;;;;;;;6.60;5.22;;;;;;;1.34;100.00;95950.09;1090141;27;19998;-71
2024/04/23 01:52:10;;;;;;;10.27;5.22;;;;;;;1.41;100.00;95956.03;1090278;27;20053;-71
2024/04/23 01:52:41;;;;;;;8.05;4.85;;;;;;;1.39;100.00;95949.47;1090217;27;20417;-71
2024/04/23 01:53:11;;;;;;;7.82;4.97;;;;;;;1.36;100.00;95952.47;1097278;27;20052;-71
2024/04/23 01:53:42;;;;;;;10.70;5.70;;;;;;;1.29;100.00;95949.09;1089961;27;20238;-71
2024/04/23 01:54:12;;;;;;;9.57;5.47;;;;;;;1.30;100.00;95953.25;1097001;26;19997;-71
2024/04/23 01:54:43;;;;;;;9.65;5.03;;;;;;;1.27;100.00;95948.47;1097670;26;20412;-71
2024/04/23 01:55:15;;;;;;;8.35;4.60;;;;;;;1.29;100.00;95952.47;1096980;27;20416;-70
2024/04/23 01:55:47;;;;;;;6.35;4.68;;;;;;;1.25;100.00;95943.50;1104094;26;20587;-71
2024/04/23 01:56:18;;;;;;;9.55;5.55;;;;;;;1.28;100.00;95955.25;1094279;27;20205;-71
2024/04/23 01:56:48;;;;;;;9.15;5.35;;;;;;;1.25;100.00;95950.47;1090268;27;20229;-71
2024/04/23 01:57:19;;;;;;;7.97;5.07;;;;;;;1.21;100.00;95938.91;1081693;27;20007;-71
2024/04/23 01:57:49;;;;;;;10.90;5.78;;;;;;;1.22;100.00;95941.31;1090159;27;20077;-71
2024/04/23 01:58:19;;;;;;;9.18;5.43;;;;;;;1.32;100.00;95957.22;1104073;26;20484;-71
2024/04/23 01:58:50;;;;;;;8.63;5.03;;;;;;;1.28;100.00;95947.50;1104511;26;20079;-71
2024/04/23 01:59:21;;;;;;;9.52;4.93;;;;;;;1.33;100.00;95955.44;1096937;27;20075;-71
2024/04/23 01:59:55;;;;;;;7.70;5.55;;;;;;;1.28;100.00;95955.25;1090564;26;20083;-71
2024/04/23 02:00:25;;;;;;;10.25;5.72;;;;;;;1.26;100.00;95954.66;1096608;27;19998;-71
2024/04/23 02:00:56;;;;;;;6.95;4.85;;;;;;;1.15;100.00;95946.50;1103998;26;20287;-71
2024/04/23 02:01:26;;;;;;;9.45;6.05;;;;;;;1.22;100.00;95956.84;1104435;26;20322;-71
2024/04/23 02:01:57;;;;;;;6.57;5.07;;;;;;;1.14;100.00;95947.50;1097178;27;20342;-71
2024/04/23 02:02:27;;;;;;;7.57;5.30;;;;;;;1.22;100.00;95956.03;1090390;27;20010;-71
2024/04/23 02:03:00;;;;;;;8.88;5.65;;;;;;;1.24;100.00;95954.03;1090199;27;20545;-72
2024/04/23 02:03:30;;;;;;;10.25;5.60;;;;;;;1.22;100.00;95950.88;1083620;27;20006;-71
2024/04/23 02:04:00;;;;;;;9.75;5.22;;;;;;;1.17;100.00;95957.44;1082844;27;20234;-71
2024/04/23 02:04:31;;;;;;;8.32;6.00;;;;;;;1.23;100.00;95952.44;1089948;27;20014;-72
2024/04/23 02:05:01;;;;;;;9.25;5.65;;;;;;;1.18;100.00;95958.22;1090034;27;19998;-71
2024/04/23 02:05:32;;;;;;;7.85;5.45;;;;;;;1.20;100.00;95947.69;1090216;27;20102;-71
2024/04/23 02:06:02;;;;;;;8.90;5.15;;;;;;;1.24;100.00;95948.88;1091614;26;20010;-71
2024/04/23 02:06:33;;;;;;;8.57;5.93;;;;;;;1.24;100.00;95954.03;1097365;27;20002;-72
2024/04/23 02:07:03;;;;;;;7.47;5.50;;;;;;;1.24;100.00;95948.88;1090396;27;20002;-71
2024/04/23 02:07:34;;;;;;;9.88;5.57;;;;;;;1.18;100.00;95943.50;1097347;27;20002;-71
2024/04/23 02:08:05;;;;;;;8.45;5.40;;;;;;;1.20;100.00;95950.25;1096825;27;20615;-71
2024/04/23 02:08:35;;;;;;;8.68;5.47;;;;;;;1.17;100.00;95938.53;1103971;26;20068;-71
2024/04/23 02:09:06;;;;;;;8.52;5.20;;;;;;;1.15;100.00;95943.91;1117456;26;20613;-71
2024/04/23 02:09:36;;;;;;;9.95;5.25;;;;;;;1.15;100.00;95954.25;1110318;26;20118;-71
2024/04/23 02:10:07;;;;;;;6.55;4.68;;;;;;;1.15;100.00;95945.69;1110457;26;19992;-71
2024/04/23 02:10:37;;;;;;;8.98;5.20;;;;;;;1.09;100.00;95939.53;1103554;26;20001;-71
2024/04/23 02:11:08;;;;;;;9.00;5.75;;;;;;;1.13;100.00;95945.88;1089327;27;20076;-70
2024/04/23 02:11:40;;;;;;;9.07;5.45;;;;;;;1.07;100.00;95944.06;1089325;27;19998;-71
2024/04/23 02:12:14;;;;;;;7.72;4.72;;;;;;;1.09;100.00;95941.31;1089365;27;20002;-71
2024/04/23 02:12:44;;;;;;;7.70;5.53;;;;;;;1.10;100.00;95948.84;1089713;27;20294;-71
2024/04/23 02:13:15;;;;;;;10.13;4.93;;;;;;;1.14;100.00;95950.06;1096582;27;20221;-71
2024/04/23 02:13:45;;;;;;;8.95;5.03;;;;;;;1.12;100.00;95949.47;1097095;26;20415;-70
2024/04/23 02:14:16;;;;;;;9.18;5.35;;;;;;;1.10;100.00;95951.44;1089300;27;20009;-71
2024/04/23 02:14:46;;;;;;;10.45;5.57;;;;;;;1.07;100.00;95951.84;1086857;27;20010;-70
2024/04/23 02:15:17;;;;;;;7.70;5.20;;;;;;;1.06;100.00;95947.66;1089592;27;20002;-71
2024/04/23 02:15:47;;;;;;;9.65;5.03;;;;;;;1.03;100.00;95948.06;1089527;27;20002;-71
2024/04/23 02:16:18;;;;;;;10.45;5.40;;;;;;;1.03;100.00;95948.06;1089250;26;19995;-71
2024/04/23 02:16:48;;;;;;;9.30;6.07;;;;;;;0.99;100.00;95946.88;1089948;27;19998;-71
2024/04/23 02:17:18;;;;;;;8.13;5.47;;;;;;;0.95;100.00;95937.94;1082594;27;20011;-71
2024/04/23 02:17:49;;;;;;;10.32;5.82;;;;;;;0.99;100.00;95953.81;1082567;27;20014;-71
2024/04/23 02:18:20;;;;;;;8.18;5.68;;;;;;;0.96;100.00;95959.38;1096303;27;20010;-71
2024/04/23 02:18:50;;;;;;;11.25;6.30;;;;;;;0.91;100.00;95952.22;1096579;27;20056;-70
2024/04/23 02:19:21;;;;;;;9.38;5.93;;;;;;;0.92;100.00;95956.41;1097102;26;20299;-71
2024/04/23 02:19:52;;;;;;;8.32;5.70;;;;;;;0.89;100.00;95961.97;1089606;27;20014;-71
2024/04/23 02:20:22;;;;;;;8.73;5.57;;;;;;;0.89;100.00;95961.97;1103147;26;20000;-71
2024/04/23 02:20:52;;;;;;;9.25;5.80;;;;;;;0.84;100.00;95946.22;1111133;26;19993;-71
2024/04/23 02:21:23;;;;;;;9.15;6.13;;;;;;;0.83;100.00;95962.72;1103734;26;19997;-71
2024/04/23 02:21:53;;;;;;;10.98;5.72;;;;;;;0.83;100.00;95970.47;1102697;26;20106;-69
2024/04/23 02:22:24;;;;;;;8.68;5.38;;;;;;;0.79;100.00;95961.53;1109958;26;20007;-70
2024/04/23 02:22:54;;;;;;;8.68;5.55;;;;;;;0.79;100.00;95962.34;1111260;26;19996;-71
2024/04/23 02:23:24;;;;;;;9.45;5.85;;;;;;;0.79;100.00;95975.25;1116885;26;20031;-71
2024/04/23 02:23:55;;;;;;;8.90;5.63;;;;;;;0.79;100.00;95966.69;1118403;26;19996;-71
2024/04/23 02:24:25;;;;;;;9.10;5.75;;;;;;;0.77;100.00;95963.50;1103961;26;19997;-71
2024/04/23 02:24:56;;;;;;;9.63;5.40;;;;;;;0.75;100.00;95975.84;1096417;26;20001;-71
2024/04/23 02:25:26;;;;;;;7.43;5.40;;;;;;;0.74;100.00;95971.66;1096486;27;20002;-71